Time;durP1;ratioP1;P1;durP2;ratioP2;P2;SDS_P1;SDS_P2;PMS_P1;PMS_P2;Temp;Humidity;BMP_temperature;BMP_pressure;BME280_temperature;BME280_humidity;BME280_pressure;Samples;Min_cycle;Max_cycle;Signal;HPM_P1;HPM_P2
2022/10/24 00:00:10;;;;;;;2.45;1.15;;;;;21.60;100157.00;;;;5092267;28;20273;-76
2022/10/24 00:02:37;;;;;;;4.80;1.35;;;;;21.60;100144.00;;;;5092108;28;20211;-76
2022/10/24 00:05:05;;;;;;;3.78;1.48;;;;;21.60;100154.00;;;;5092549;28;20190;-76
2022/10/24 00:07:32;;;;;;;4.13;1.10;;;;;21.60;100155.00;;;;5091302;28;20731;-76
2022/10/24 00:09:59;;;;;;;2.55;1.13;;;;;21.60;100151.00;;;;5091399;28;20186;-76
2022/10/24 00:12:27;;;;;;;6.93;1.83;;;;;21.60;100146.00;;;;5091169;28;20198;-76
2022/10/24 00:14:55;;;;;;;2.60;1.05;;;;;21.60;100142.00;;;;5091924;28;20186;-76
2022/10/24 00:17:23;;;;;;;2.25;1.15;;;;;21.60;100141.00;;;;5091388;28;20197;-76
2022/10/24 00:19:53;;;;;;;1.95;1.20;;;;;21.60;100140.00;;;;5091246;28;20237;-76
2022/10/24 00:22:20;;;;;;;2.75;1.10;;;;;21.60;100145.00;;;;5090727;28;20198;-76
2022/10/24 00:24:47;;;;;;;4.65;1.77;;;;;21.60;100139.00;;;;5091483;28;20209;-76
2022/10/24 00:27:14;;;;;;;5.03;1.73;;;;;21.60;100137.00;;;;5090995;28;20201;-76
2022/10/24 00:29:41;;;;;;;3.42;1.08;;;;;21.60;100145.00;;;;5090806;28;20231;-76
2022/10/24 00:32:10;;;;;;;3.58;1.17;;;;;21.60;100136.00;;;;5090739;28;20237;-76
2022/10/24 00:34:38;;;;;;;3.30;1.73;;;;;21.60;100141.00;;;;5091429;28;20213;-76
2022/10/24 00:37:05;;;;;;;2.95;1.20;;;;;21.60;100144.00;;;;5090629;28;20206;-77
2022/10/24 00:39:33;;;;;;;3.13;0.98;;;;;21.60;100139.00;;;;5090479;28;20222;-76
2022/10/24 00:42:00;;;;;;;4.47;1.20;;;;;21.60;100138.00;;;;5090589;28;20199;-76
2022/10/24 00:44:29;;;;;;;2.83;1.02;;;;;21.60;100128.00;;;;5091185;28;20671;-76
2022/10/24 00:47:01;;;;;;;4.63;1.75;;;;;21.50;100123.00;;;;5091389;28;20209;-76
2022/10/24 00:49:37;;;;;;;4.78;1.02;;;;;21.50;100122.00;;;;5090887;28;20213;-76
2022/10/24 00:52:07;;;;;;;2.33;0.82;;;;;21.50;100124.00;;;;5091250;28;20198;-77
2022/10/24 00:54:36;;;;;;;2.95;1.05;;;;;21.50;100121.00;;;;5090299;28;20654;-76
2022/10/24 00:57:09;;;;;;;6.65;1.45;;;;;21.50;100119.00;;;;5091266;28;20256;-76
2022/10/24 00:59:40;;;;;;;6.97;1.75;;;;;21.50;100135.00;;;;5090511;28;20710;-76
2022/10/24 01:02:07;;;;;;;3.50;2.03;;;;;21.50;100126.00;;;;5089929;28;20293;-76
2022/10/24 01:04:36;;;;;;;2.65;1.05;;;;;21.50;100123.00;;;;5091032;28;20233;-76
2022/10/24 01:07:17;;;;;;;2.10;1.00;;;;;21.50;100121.00;;;;5090672;28;20194;-77
2022/10/24 01:10:03;;;;;;;2.88;1.02;;;;;21.40;100114.00;;;;5090503;28;20202;-77
2022/10/24 01:12:40;;;;;;;5.25;0.88;;;;;21.50;100115.00;;;;5089484;28;20202;-76
2022/10/24 01:15:17;;;;;;;3.40;1.08;;;;;21.50;100110.00;;;;5089625;28;20561;-76
2022/10/24 01:17:55;;;;;;;3.63;0.90;;;;;21.50;100112.00;;;;5090013;28;20616;-76
2022/10/24 01:20:44;;;;;;;3.17;1.35;;;;;21.50;100105.00;;;;5089497;28;20218;-76
2022/10/24 01:23:40;;;;;;;2.90;0.80;;;;;21.50;100113.00;;;;5090262;28;20198;-76
2022/10/24 01:26:25;;;;;;;2.50;1.13;;;;;21.50;100095.00;;;;5082659;28;20202;-76
2022/10/24 01:29:05;;;;;;;6.13;1.70;;;;;21.50;100099.00;;;;5089299;28;20213;-76
2022/10/24 01:31:40;;;;;;;2.00;0.95;;;;;21.50;100104.00;;;;5089927;28;20202;-76
2022/10/24 01:34:15;;;;;;;2.97;1.58;;;;;21.60;100100.00;;;;5089805;28;20226;-76
2022/10/24 01:36:49;;;;;;;3.13;0.77;;;;;21.60;100099.00;;;;5090017;28;20202;-75
2022/10/24 01:39:21;;;;;;;4.82;1.40;;;;;21.60;100099.00;;;;5089044;28;20229;-75
2022/10/24 01:41:50;;;;;;;3.67;1.00;;;;;21.60;100087.00;;;;5089565;28;20671;-75
2022/10/24 01:44:22;;;;;;;2.78;1.10;;;;;21.60;100089.00;;;;5089141;28;20705;-75
2022/10/24 01:46:57;;;;;;;2.78;1.10;;;;;21.50;100085.00;;;;5089326;28;20201;-75
2022/10/24 01:49:29;;;;;;;1.02;0.80;;;;;21.60;100090.00;;;;5089223;28;20209;-75
2022/10/24 01:52:00;;;;;;;1.48;0.80;;;;;21.60;100089.00;;;;5089008;28;20202;-74
2022/10/24 01:54:28;;;;;;;7.72;0.90;;;;;21.60;100084.00;;;;5089490;28;20202;-75
2022/10/24 01:56:55;;;;;;;2.20;1.00;;;;;21.60;100070.00;;;;5088665;28;20206;-75
2022/10/24 01:59:43;;;;;;;3.70;0.95;;;;;21.50;100074.00;;;;5088934;28;20222;-74
2022/10/24 02:02:17;;;;;;;6.20;1.10;;;;;21.60;100069.00;;;;5089136;28;20213;-74
2022/10/24 02:04:49;;;;;;;3.38;1.25;;;;;21.60;100068.00;;;;5088570;28;20209;-75
2022/10/24 02:07:17;;;;;;;3.08;0.90;;;;;21.60;100062.00;;;;5089078;28;20209;-75
2022/10/24 02:09:48;;;;;;;2.17;0.90;;;;;21.60;100063.00;;;;5089388;28;20539;-75
2022/10/24 02:12:17;;;;;;;3.80;1.15;;;;;21.60;100064.00;;;;5088342;28;20205;-77
2022/10/24 02:14:47;;;;;;;1.83;0.95;;;;;21.60;100061.00;;;;5088447;28;20209;-76
2022/10/24 02:17:17;;;;;;;1.65;1.02;;;;;21.60;100056.00;;;;5088853;28;20199;-76
2022/10/24 02:19:46;;;;;;;5.47;0.93;;;;;21.60;100067.00;;;;5088455;28;20679;-76
2022/10/24 02:22:21;;;;;;;2.42;0.98;;;;;21.60;100062.00;;;;5088571;28;20198;-76
2022/10/24 02:24:52;;;;;;;3.47;1.17;;;;;21.60;100063.00;;;;5088634;28;20209;-76
2022/10/24 02:27:24;;;;;;;2.35;1.20;;;;;21.60;100066.00;;;;5088266;28;20671;-76
2022/10/24 02:29:55;;;;;;;3.38;0.90;;;;;21.60;100062.00;;;;5088477;28;20679;-76
2022/10/24 02:32:29;;;;;;;9.85;1.15;;;;;21.50;100055.00;;;;5088379;28;20245;-76
2022/10/24 02:34:58;;;;;;;2.53;1.10;;;;;21.50;100064.00;;;;5088852;28;20205;-76
2022/10/24 02:37:27;;;;;;;1.65;1.02;;;;;21.50;100061.00;;;;5087617;28;20209;-76
2022/10/24 02:39:57;;;;;;;2.45;1.05;;;;;21.50;100057.00;;;;5070679;28;20225;-76
2022/10/24 02:42:27;;;;;;;4.25;1.13;;;;;21.50;100063.00;;;;5087856;28;20195;-77
2022/10/24 02:44:55;;;;;;;2.65;1.50;;;;;21.50;100056.00;;;;5088295;28;20671;-76
2022/10/24 02:47:26;;;;;;;2.08;0.98;;;;;21.40;100061.00;;;;5088032;28;20206;-76
2022/10/24 02:49:54;;;;;;;1.25;0.85;;;;;21.40;100059.00;;;;5088432;28;20229;-77
2022/10/24 02:52:22;;;;;;;4.30;1.95;;;;;21.40;100064.00;;;;5088039;28;20205;-76
2022/10/24 02:54:49;;;;;;;4.47;1.02;;;;;21.40;100064.00;;;;5087938;28;20759;-76
2022/10/24 02:57:17;;;;;;;3.28;0.95;;;;;21.40;100062.00;;;;5088190;28;20198;-76
2022/10/24 02:59:44;;;;;;;2.22;1.20;;;;;21.40;100061.00;;;;5087572;28;20218;-76
2022/10/24 03:02:11;;;;;;;5.55;1.02;;;;;21.40;100059.00;;;;5087948;28;20694;-76
2022/10/24 03:04:40;;;;;;;2.88;1.00;;;;;21.40;100056.00;;;;5088603;28;20213;-76
2022/10/24 03:07:07;;;;;;;3.58;1.05;;;;;21.40;100050.00;;;;5087955;28;20210;-76
2022/10/24 03:09:35;;;;;;;2.15;0.90;;;;;21.40;100065.00;;;;5087323;28;20205;-76
2022/10/24 03:12:02;;;;;;;1.65;0.73;;;;;21.40;100069.00;;;;5088026;28;20206;-76
2022/10/24 03:14:30;;;;;;;2.72;1.00;;;;;21.30;100065.00;;;;5087890;28;20202;-76
2022/10/24 03:16:57;;;;;;;3.53;0.80;;;;;21.30;100062.00;;;;5088172;28;21175;-76
2022/10/24 03:19:24;;;;;;;2.67;1.42;;;;;21.30;100055.00;;;;5087545;28;20206;-76
2022/10/24 03:21:53;;;;;;;2.70;0.93;;;;;21.30;100064.00;;;;5087381;28;20213;-77
2022/10/24 03:24:20;;;;;;;1.30;0.90;;;;;21.30;100062.00;;;;5087769;28;20206;-76
2022/10/24 03:26:50;;;;;;;3.35;0.80;;;;;21.30;100058.00;;;;5087865;28;20229;-76
2022/10/24 03:29:18;;;;;;;1.05;0.68;;;;;21.20;100063.00;;;;5087290;28;20214;-77
2022/10/24 03:31:45;;;;;;;3.80;1.05;;;;;21.20;100067.00;;;;5087836;28;20230;-76
2022/10/24 03:34:12;;;;;;;2.63;1.17;;;;;21.20;100068.00;;;;5086675;28;20230;-77
2022/10/24 03:36:40;;;;;;;1.05;0.93;;;;;21.20;100069.00;;;;5088479;28;20193;-76
2022/10/24 03:39:08;;;;;;;4.55;1.00;;;;;21.20;100066.00;;;;5087665;28;20194;-78
2022/10/24 03:41:36;;;;;;;3.65;0.95;;;;;21.20;100065.00;;;;5086908;28;20603;-77
2022/10/24 03:44:03;;;;;;;4.72;1.02;;;;;21.20;100053.00;;;;5088051;28;20197;-77
2022/10/24 03:46:30;;;;;;;1.60;0.73;;;;;21.10;100069.00;;;;5087327;28;20198;-77
2022/10/24 03:48:57;;;;;;;7.85;1.00;;;;;21.10;100065.00;;;;5087088;28;20200;-77
2022/10/24 03:51:25;;;;;;;1.73;0.82;;;;;21.10;100057.00;;;;5087509;28;20190;-78
2022/10/24 03:53:52;;;;;;;3.05;0.65;;;;;21.20;100061.00;;;;5087769;28;20194;-77
2022/10/24 03:56:21;;;;;;;2.13;0.77;;;;;21.20;100065.00;;;;5087370;28;20201;-78
2022/10/24 03:58:48;;;;;;;4.70;0.60;;;;;21.20;100058.00;;;;5087505;28;20202;-76
2022/10/24 04:01:17;;;;;;;1.38;0.52;;;;;21.20;100053.00;;;;5087011;28;20226;-77
2022/10/24 04:03:45;;;;;;;3.10;0.82;;;;;21.20;100058.00;;;;5087732;28;20740;-77
2022/10/24 04:06:13;;;;;;;2.58;0.85;;;;;21.20;100061.00;;;;5087446;28;20205;-77
2022/10/24 04:08:40;;;;;;;6.13;0.63;;;;;21.20;100052.00;;;;5087555;28;20232;-77
2022/10/24 04:11:08;;;;;;;1.65;0.35;;;;;21.20;100050.00;;;;5087518;28;20209;-77
2022/10/24 04:13:37;;;;;;;1.33;0.30;;;;;21.20;100055.00;;;;5088243;28;20206;-77
2022/10/24 04:16:04;;;;;;;2.35;0.65;;;;;21.30;100053.00;;;;5091854;28;20676;-77
2022/10/24 04:18:32;;;;;;;2.40;0.68;;;;;21.30;100059.00;;;;5091222;28;20620;-75
2022/10/24 04:20:59;;;;;;;4.05;0.60;;;;;21.30;100050.00;;;;5091420;28;20233;-77
2022/10/24 04:23:26;;;;;;;3.55;0.80;;;;;21.30;100046.00;;;;5090965;28;20217;-77
2022/10/24 04:25:53;;;;;;;3.40;0.40;;;;;21.30;100049.00;;;;5091418;28;20217;-77
2022/10/24 04:28:21;;;;;;;3.92;1.13;;;;;21.30;100048.00;;;;5090830;28;20218;-78
2022/10/24 04:30:55;;;;;;;3.75;0.80;;;;;21.30;100048.00;;;;5091332;28;20202;-77
2022/10/24 04:33:22;;;;;;;4.75;0.90;;;;;21.30;100049.00;;;;5091311;28;20230;-77
2022/10/24 04:35:50;;;;;;;2.83;0.75;;;;;21.30;100049.00;;;;5090499;28;20202;-77
2022/10/24 04:38:17;;;;;;;3.42;0.60;;;;;21.40;100061.00;;;;5090392;28;20561;-77
2022/10/24 04:40:47;;;;;;;2.47;0.93;;;;;21.30;100055.00;;;;5090815;28;20687;-75
2022/10/24 04:43:14;;;;;;;1.77;0.30;;;;;21.40;100054.00;;;;5090835;28;20251;-75
2022/10/24 04:45:41;;;;;;;5.22;0.70;;;;;21.40;100059.00;;;;5090635;28;20552;-76
2022/10/24 04:48:10;;;;;;;3.22;0.82;;;;;21.40;100064.00;;;;5090450;28;20202;-75
2022/10/24 04:50:39;;;;;;;3.22;0.43;;;;;21.40;100061.00;;;;5090286;28;20199;-75
2022/10/24 04:53:06;;;;;;;2.35;0.50;;;;;21.40;100060.00;;;;5090441;28;20213;-75
2022/10/24 04:55:34;;;;;;;1.20;0.50;;;;;21.40;100042.00;;;;5090879;28;20201;-75
2022/10/24 04:58:01;;;;;;;1.55;0.40;;;;;21.40;100049.00;;;;5090806;28;20671;-75
2022/10/24 05:00:29;;;;;;;4.78;0.77;;;;;21.50;100041.00;;;;5090090;28;20222;-76
2022/10/24 05:02:56;;;;;;;4.90;0.70;;;;;21.50;100050.00;;;;5091111;28;20205;-76
2022/10/24 05:05:24;;;;;;;1.58;0.50;;;;;21.50;100047.00;;;;5089376;28;20707;-76
2022/10/24 05:07:52;;;;;;;2.17;0.50;;;;;21.50;100050.00;;;;5090183;28;20205;-76
2022/10/24 05:10:19;;;;;;;2.30;0.43;;;;;21.60;100051.00;;;;5089872;28;20205;-76
2022/10/24 05:12:46;;;;;;;7.60;1.08;;;;;21.50;100058.00;;;;5090269;28;20194;-76
2022/10/24 05:15:14;;;;;;;1.08;0.32;;;;;21.50;100054.00;;;;5089782;28;20206;-76
2022/10/24 05:17:41;;;;;;;2.72;0.50;;;;;21.50;100063.00;;;;5088820;28;20194;-76
2022/10/24 05:20:10;;;;;;;2.33;0.98;;;;;21.50;100063.00;;;;5089814;28;20206;-76
2022/10/24 05:22:38;;;;;;;4.05;0.45;;;;;21.50;100061.00;;;;5089787;28;20210;-76
2022/10/24 05:25:07;;;;;;;1.23;0.73;;;;;21.50;100062.00;;;;5088939;28;20202;-76
2022/10/24 05:27:34;;;;;;;4.07;0.65;;;;;21.50;100063.00;;;;5089820;28;20544;-76
2022/10/24 05:30:02;;;;;;;3.65;0.88;;;;;21.50;100056.00;;;;5089822;28;20219;-76
2022/10/24 05:32:29;;;;;;;2.58;0.60;;;;;21.50;100061.00;;;;5089028;28;20226;-76
2022/10/24 05:34:56;;;;;;;3.33;0.93;;;;;21.50;100056.00;;;;5090042;28;20683;-76
2022/10/24 05:37:23;;;;;;;2.13;0.50;;;;;21.50;100056.00;;;;5089338;28;20194;-76
2022/10/24 05:39:52;;;;;;;6.28;0.60;;;;;21.50;100059.00;;;;5090280;28;20205;-77
2022/10/24 05:42:19;;;;;;;4.25;0.88;;;;;21.50;100062.00;;;;5089573;28;20311;-76
2022/10/24 05:44:46;;;;;;;1.73;0.70;;;;;21.50;100058.00;;;;5089020;28;20191;-76
2022/10/24 05:47:14;;;;;;;1.70;0.70;;;;;21.50;100048.00;;;;5089595;28;20194;-76
2022/10/24 05:49:41;;;;;;;1.42;0.40;;;;;21.50;100060.00;;;;5089730;28;20201;-76
2022/10/24 05:52:08;;;;;;;2.00;0.47;;;;;21.50;100063.00;;;;5089094;28;20213;-76
2022/10/24 05:54:35;;;;;;;2.45;0.98;;;;;21.50;100053.00;;;;5089288;28;20209;-76
2022/10/24 05:57:05;;;;;;;3.83;0.70;;;;;21.50;100057.00;;;;5088900;28;20497;-76
2022/10/24 05:59:32;;;;;;;2.42;0.30;;;;;21.50;100047.00;;;;5088460;28;20297;-76
2022/10/24 06:01:59;;;;;;;3.20;0.63;;;;;21.50;100053.00;;;;5090012;28;20222;-75
2022/10/24 06:04:27;;;;;;;2.60;0.45;;;;;21.50;100052.00;;;;5089439;28;20687;-76
2022/10/24 06:06:54;;;;;;;4.55;0.50;;;;;21.50;100061.00;;;;5089872;28;20238;-76
2022/10/24 06:09:21;;;;;;;1.80;0.60;;;;;21.50;100051.00;;;;5089479;28;20213;-76
2022/10/24 06:11:48;;;;;;;2.70;0.90;;;;;21.50;100066.00;;;;5089465;28;20202;-75
2022/10/24 06:14:17;;;;;;;3.55;0.40;;;;;21.50;100064.00;;;;5089297;28;20210;-77
2022/10/24 06:16:44;;;;;;;1.73;0.45;;;;;21.50;100073.00;;;;5089930;28;20194;-76
2022/10/24 06:19:12;;;;;;;2.13;0.38;;;;;21.50;100067.00;;;;5089396;28;20198;-75
2022/10/24 06:21:39;;;;;;;2.85;0.50;;;;;21.50;100067.00;;;;5088625;28;20601;-76
2022/10/24 06:24:06;;;;;;;2.45;0.52;;;;;21.50;100080.00;;;;5089502;28;20198;-75
2022/10/24 06:26:34;;;;;;;2.72;0.75;;;;;21.50;100082.00;;;;5089500;28;20204;-76
2022/10/24 06:29:01;;;;;;;1.45;0.50;;;;;21.50;100083.00;;;;5089545;28;20225;-75
2022/10/24 06:31:29;;;;;;;2.70;0.77;;;;;21.50;100087.00;;;;5088648;28;20206;-77
2022/10/24 06:33:57;;;;;;;2.80;0.60;;;;;21.50;100090.00;;;;5088949;28;20229;-76
2022/10/24 06:36:24;;;;;;;5.35;0.77;;;;;21.50;100082.00;;;;5088424;28;20202;-76
2022/10/24 06:38:51;;;;;;;2.15;0.80;;;;;21.50;100095.00;;;;5089287;28;20198;-76
2022/10/24 06:41:18;;;;;;;4.28;0.57;;;;;21.50;100101.00;;;;5088553;28;20724;-75
2022/10/24 06:43:47;;;;;;;3.85;0.82;;;;;21.50;100090.00;;;;5088557;28;20682;-75
2022/10/24 06:46:16;;;;;;;3.55;0.68;;;;;21.50;100100.00;;;;5089054;28;20205;-75
2022/10/24 06:48:45;;;;;;;2.95;0.60;;;;;21.50;100085.00;;;;5089257;28;20206;-76
2022/10/24 06:51:15;;;;;;;2.42;0.77;;;;;21.50;100100.00;;;;5088354;28;20740;-76
2022/10/24 06:53:43;;;;;;;3.40;0.90;;;;;21.60;100097.00;;;;5088307;28;20282;-76
2022/10/24 06:56:11;;;;;;;3.50;0.85;;;;;21.60;100102.00;;;;5088592;28;20206;-75
2022/10/24 06:58:39;;;;;;;2.55;0.65;;;;;21.60;100110.00;;;;5089040;28;20206;-76
2022/10/24 07:01:10;;;;;;;5.03;0.88;;;;;21.50;100100.00;;;;5087933;28;20315;-76
2022/10/24 07:03:37;;;;;;;4.38;0.80;;;;;21.60;100113.00;;;;5089170;28;20202;-75
2022/10/24 07:06:11;;;;;;;3.72;0.60;;;;;21.50;100124.00;;;;5087965;28;20551;-76
2022/10/24 07:08:38;;;;;;;2.42;0.50;;;;;21.60;100124.00;;;;5088308;28;20206;-75
2022/10/24 07:11:06;;;;;;;4.20;0.82;;;;;21.60;100134.00;;;;5088845;28;20202;-76
2022/10/24 07:13:33;;;;;;;4.68;1.38;;;;;21.60;100140.00;;;;5088761;28;20206;-75
2022/10/24 07:16:00;;;;;;;4.68;0.52;;;;;21.60;100144.00;;;;5088290;28;20202;-75
2022/10/24 07:18:28;;;;;;;4.82;1.10;;;;;21.60;100149.00;;;;5088223;28;20202;-76
2022/10/24 07:21:00;;;;;;;2.22;0.38;;;;;21.60;100142.00;;;;5088068;28;20703;-75
2022/10/24 07:23:29;;;;;;;2.83;0.47;;;;;21.60;100155.00;;;;5088395;28;20197;-75
2022/10/24 07:26:00;;;;;;;6.53;1.25;;;;;21.70;100149.00;;;;5088334;28;20229;-75
2022/10/24 07:28:27;;;;;;;7.80;0.65;;;;;21.70;100160.00;;;;5086992;28;20225;-76
2022/10/24 07:30:54;;;;;;;4.57;1.55;;;;;21.70;100159.00;;;;5088083;28;20530;-76
2022/10/24 07:33:22;;;;;;;2.08;0.57;;;;;21.70;100164.00;;;;5087669;28;20232;-76
2022/10/24 07:35:49;;;;;;;6.22;0.80;;;;;21.70;100171.00;;;;5087480;28;20206;-78
2022/10/24 07:38:16;;;;;;;3.70;0.93;;;;;21.70;100158.00;;;;5087137;28;20201;-77
2022/10/24 07:40:45;;;;;;;3.97;0.57;;;;;21.70;100162.00;;;;5087457;28;20202;-77
2022/10/24 07:43:12;;;;;;;4.32;0.80;;;;;21.70;100171.00;;;;5087464;28;20197;-76
2022/10/24 07:45:42;;;;;;;3.63;0.77;;;;;21.70;100173.00;;;;5087196;28;20202;-77
2022/10/24 07:48:10;;;;;;;5.78;0.82;;;;;21.70;100174.00;;;;5088260;28;20566;-77
2022/10/24 07:50:43;;;;;;;2.63;0.45;;;;;21.70;100177.00;;;;5091775;28;20202;-77
2022/10/24 07:53:11;;;;;;;4.13;0.85;;;;;21.70;100178.00;;;;5091152;28;20202;-77
2022/10/24 07:55:39;;;;;;;6.00;1.25;;;;;21.70;100181.00;;;;5091149;28;20575;-77
2022/10/24 07:58:08;;;;;;;3.92;0.88;;;;;21.70;100183.00;;;;5091458;28;20201;-76
2022/10/24 08:00:36;;;;;;;3.92;0.80;;;;;21.80;100185.00;;;;5091614;28;20206;-77
2022/10/24 08:03:03;;;;;;;3.45;0.82;;;;;21.80;100196.00;;;;5092497;28;20226;-76
2022/10/24 08:05:31;;;;;;;3.72;0.70;;;;;21.80;100197.00;;;;5091311;28;20564;-77
2022/10/24 08:07:58;;;;;;;3.75;0.70;;;;;21.90;100191.00;;;;5091925;28;20210;-77
2022/10/24 08:10:25;;;;;;;2.30;0.40;;;;;21.80;100197.00;;;;5091409;28;20205;-77
2022/10/24 08:12:53;;;;;;;3.85;0.77;;;;;21.90;100205.00;;;;5092435;28;20198;-76
2022/10/24 08:15:24;;;;;;;1.75;0.52;;;;;21.90;100196.00;;;;5091331;28;20194;-77
2022/10/24 08:17:51;;;;;;;2.22;0.75;;;;;21.90;100202.00;;;;5091929;28;20285;-76
2022/10/24 08:20:19;;;;;;;2.97;0.50;;;;;21.90;100197.00;;;;5091372;28;20698;-77
2022/10/24 08:22:46;;;;;;;2.10;0.52;;;;;21.90;100211.00;;;;5091187;28;20734;-78
2022/10/24 08:25:14;;;;;;;3.78;0.40;;;;;21.90;100212.00;;;;5091586;28;20203;-77
2022/10/24 08:27:41;;;;;;;2.30;0.85;;;;;21.90;100212.00;;;;5091308;28;20698;-77
2022/10/24 08:30:09;;;;;;;3.03;0.82;;;;;21.90;100216.00;;;;5090940;28;20703;-77
2022/10/24 08:32:38;;;;;;;1.42;0.32;;;;;21.90;100213.00;;;;5091604;28;20738;-77
2022/10/24 08:35:06;;;;;;;3.28;0.82;;;;;21.90;100218.00;;;;5091324;28;20672;-78
2022/10/24 08:37:37;;;;;;;3.92;1.00;;;;;21.90;100207.00;;;;5091906;28;20202;-77
2022/10/24 08:40:07;;;;;;;3.97;0.52;;;;;22.00;100217.00;;;;5091470;28;20275;-77
2022/10/24 08:42:35;;;;;;;2.08;0.68;;;;;22.00;100219.00;;;;5091385;28;20229;-77
2022/10/24 08:45:03;;;;;;;6.18;0.95;;;;;21.90;100227.00;;;;5091568;28;20202;-75
2022/10/24 08:47:35;;;;;;;4.28;0.82;;;;;21.90;100226.00;;;;5090962;28;20206;-74
2022/10/24 08:50:13;;;;;;;3.25;0.68;;;;;21.90;100229.00;;;;5091309;28;20199;-75
2022/10/24 08:52:43;;;;;;;1.55;0.55;;;;;21.90;100226.00;;;;5090952;28;20198;-75
2022/10/24 08:55:15;;;;;;;2.83;0.45;;;;;21.90;100232.00;;;;5090626;28;20206;-74
2022/10/24 08:57:46;;;;;;;2.53;0.73;;;;;22.00;100230.00;;;;5091219;28;20202;-75
2022/10/24 09:00:20;;;;;;;3.47;0.57;;;;;21.90;100228.00;;;;5090211;28;20202;-75
2022/10/24 09:02:53;;;;;;;5.15;0.95;;;;;22.00;100229.00;;;;5090408;28;20232;-75
2022/10/24 09:05:25;;;;;;;2.25;0.50;;;;;22.00;100238.00;;;;5090984;28;20210;-75
2022/10/24 09:08:00;;;;;;;1.65;0.60;;;;;22.00;100239.00;;;;5090736;28;20209;-77
2022/10/24 09:10:41;;;;;;;3.05;0.65;;;;;22.00;100248.00;;;;5091024;28;20202;-75
2022/10/24 09:13:13;;;;;;;6.22;0.65;;;;;22.00;100249.00;;;;5091103;28;20574;-75
2022/10/24 09:15:42;;;;;;;2.85;0.32;;;;;22.10;100252.00;;;;5090947;28;20232;-75
2022/10/24 09:18:17;;;;;;;2.13;0.60;;;;;22.10;100265.00;;;;5090291;28;21037;-75
2022/10/24 09:20:47;;;;;;;6.43;0.68;;;;;22.20;100265.00;;;;5091005;28;20205;-75
2022/10/24 09:23:16;;;;;;;1.85;0.65;;;;;22.20;100267.00;;;;5090628;28;20237;-76
2022/10/24 09:25:48;;;;;;;2.10;0.65;;;;;22.20;100283.00;;;;5090860;28;20205;-76
2022/10/24 09:28:16;;;;;;;2.00;0.60;;;;;22.20;100267.00;;;;5090306;28;20668;-75
2022/10/24 09:30:44;;;;;;;2.70;0.70;;;;;22.30;100260.00;;;;5090596;28;20202;-76
2022/10/24 09:33:23;;;;;;;4.38;0.90;;;;;22.20;100274.00;;;;5089684;28;20233;-76
2022/10/24 09:35:53;;;;;;;2.30;0.47;;;;;22.30;100287.00;;;;5090300;28;20259;-76
2022/10/24 09:38:32;;;;;;;2.28;0.50;;;;;22.20;100298.00;;;;5090322;28;20583;-76
2022/10/24 09:41:03;;;;;;;2.63;0.70;;;;;22.30;100302.00;;;;5090533;28;20288;-76
2022/10/24 09:43:37;;;;;;;11.63;0.68;;;;;22.20;100298.00;;;;5089757;28;20221;-76
2022/10/24 09:46:07;;;;;;;6.78;1.00;;;;;22.30;100299.00;;;;5089993;28;20194;-76
2022/10/24 09:48:48;;;;;;;1.67;0.50;;;;;22.20;100301.00;;;;5089670;28;20591;-76
2022/10/24 09:51:23;;;;;;;1.90;0.40;;;;;22.20;100322.00;;;;5089428;28;20205;-76
2022/10/24 09:54:07;;;;;;;4.85;0.98;;;;;22.10;100324.00;;;;5090086;28;20198;-76
2022/10/24 09:56:38;;;;;;;3.20;0.43;;;;;22.20;100333.00;;;;5089572;28;20199;-75
2022/10/24 09:59:36;;;;;;;4.05;0.85;;;;;22.10;100331.00;;;;5090081;28;20579;-76
2022/10/24 10:02:24;;;;;;;3.05;0.60;;;;;22.10;100334.00;;;;5089879;28;20222;-76
2022/10/24 10:05:17;;;;;;;2.35;0.52;;;;;22.00;100323.00;;;;5091003;28;20205;-76
2022/10/24 10:07:49;;;;;;;1.40;0.50;;;;;22.20;100342.00;;;;5106554;28;20213;-76
2022/10/24 10:10:27;;;;;;;2.40;0.65;;;;;22.10;100338.00;;;;5110142;28;20620;-75
2022/10/24 10:13:01;;;;;;;3.58;0.40;;;;;22.10;100352.00;;;;5109630;28;20204;-75
2022/10/24 10:15:34;;;;;;;1.33;0.70;;;;;22.10;100340.00;;;;5109405;28;20659;-75
2022/10/24 10:18:04;;;;;;;3.55;0.57;;;;;22.20;100359.00;;;;5109818;28;20296;-76
2022/10/24 10:20:35;;;;;;;1.50;0.82;;;;;22.10;100359.00;;;;5109720;28;20205;-77
2022/10/24 10:23:25;;;;;;;2.35;0.50;;;;;22.00;100349.00;;;;5109673;28;20224;-76
2022/10/24 10:26:04;;;;;;;2.28;0.40;;;;;22.10;100362.00;;;;5109613;28;20259;-76
2022/10/24 10:28:35;;;;;;;1.73;0.45;;;;;22.10;100368.00;;;;5109309;28;20718;-76
2022/10/24 10:31:02;;;;;;;1.23;0.40;;;;;22.20;100379.00;;;;5109881;28;20198;-76
2022/10/24 10:33:36;;;;;;;1.60;0.60;;;;;22.20;100395.00;;;;5108696;28;20232;-76
2022/10/24 10:36:09;;;;;;;2.38;0.82;;;;;22.20;100383.00;;;;5109432;28;20205;-76
2022/10/24 10:38:59;;;;;;;2.80;0.55;;;;;22.20;100386.00;;;;5109267;28;20205;-76
2022/10/24 10:41:37;;;;;;;1.55;0.50;;;;;22.30;100385.00;;;;5109151;28;20582;-75
2022/10/24 10:44:18;;;;;;;2.38;0.43;;;;;22.30;100396.00;;;;5109199;28;20205;-75
2022/10/24 10:46:52;;;;;;;1.75;0.57;;;;;22.40;100403.00;;;;5109234;28;21166;-75
2022/10/24 10:49:29;;;;;;;2.17;0.60;;;;;22.40;100405.00;;;;5109646;28;20204;-76
2022/10/24 10:52:00;;;;;;;3.15;0.90;;;;;22.40;100407.00;;;;5109888;28;20193;-75
2022/10/24 10:54:42;;;;;;;2.58;0.50;;;;;22.40;100413.00;;;;5109275;28;20200;-76
2022/10/24 10:57:12;;;;;;;2.67;0.50;;;;;22.40;100408.00;;;;5108978;28;20196;-76
2022/10/24 10:59:55;;;;;;;3.80;0.50;;;;;22.40;100415.00;;;;5108672;28;20185;-76
2022/10/24 11:02:37;;;;;;;5.25;0.80;;;;;22.40;100428.00;;;;5108814;28;20705;-76
2022/10/24 11:05:19;;;;;;;5.60;0.85;;;;;22.50;100425.00;;;;5108846;28;20232;-76
2022/10/24 11:07:55;;;;;;;1.05;0.50;;;;;22.60;100421.00;;;;5108965;28;20201;-76
2022/10/24 11:10:27;;;;;;;2.17;0.40;;;;;22.60;100435.00;;;;5109043;28;20197;-76
2022/10/24 11:12:57;;;;;;;2.08;0.65;;;;;22.60;100432.00;;;;5108376;28;20545;-76
2022/10/24 11:15:29;;;;;;;1.23;0.50;;;;;22.60;100440.00;;;;5108926;28;20206;-76
2022/10/24 11:18:02;;;;;;;1.65;0.52;;;;;22.60;100437.00;;;;5108700;28;20198;-76
2022/10/24 11:20:35;;;;;;;2.17;0.40;;;;;22.60;100435.00;;;;5108283;28;20280;-76
2022/10/24 11:23:10;;;;;;;1.55;0.50;;;;;22.60;100442.00;;;;5108853;28;20221;-76
2022/10/24 11:25:44;;;;;;;1.63;0.40;;;;;22.70;100439.00;;;;5108091;28;20208;-75
2022/10/24 11:28:17;;;;;;;4.82;0.98;;;;;22.60;100445.00;;;;5108185;28;20718;-76
2022/10/24 11:30:51;;;;;;;2.85;0.70;;;;;22.60;100459.00;;;;5109133;28;20201;-77
2022/10/24 11:33:21;;;;;;;4.55;1.40;;;;;22.60;100482.00;;;;5108627;28;20341;-77
2022/10/24 11:36:12;;;;;;;4.88;0.77;;;;;22.40;100475.00;;;;5108090;28;20198;-76
2022/10/24 11:38:46;;;;;;;1.20;0.57;;;;;22.40;100461.00;;;;5109036;28;20601;-76
2022/10/24 11:41:37;;;;;;;2.35;0.55;;;;;22.30;100456.00;;;;5108654;28;20201;-76
2022/10/24 11:44:17;;;;;;;2.30;0.55;;;;;22.30;100469.00;;;;5108174;28;20229;-75
2022/10/24 11:46:51;;;;;;;1.55;0.45;;;;;22.30;100455.00;;;;5108378;28;20587;-76
2022/10/24 11:49:23;;;;;;;1.42;0.47;;;;;22.30;100456.00;;;;5107518;28;20205;-76
2022/10/24 11:51:54;;;;;;;1.33;0.38;;;;;22.30;100454.00;;;;5108102;28;20682;-76
2022/10/24 11:54:26;;;;;;;2.60;0.73;;;;;22.20;100458.00;;;;5108017;28;20212;-75
2022/10/24 11:56:58;;;;;;;1.92;0.55;;;;;22.20;100462.00;;;;5107170;28;20193;-75
2022/10/24 11:59:26;;;;;;;4.28;0.70;;;;;22.30;100466.00;;;;5107448;28;20301;-76
2022/10/24 12:02:22;;;;;;;4.13;0.63;;;;;22.10;100464.00;;;;5107989;28;20197;-75
2022/10/24 12:05:18;;;;;;;2.22;0.68;;;;;22.10;100478.00;;;;5107869;28;20201;-76
2022/10/24 12:08:32;;;;;;;2.42;0.70;;;;;22.00;100476.00;;;;5107409;28;20682;-76
2022/10/24 12:11:24;;;;;;;2.05;0.43;;;;;22.00;100479.00;;;;5072948;28;20577;-76
2022/10/24 12:14:17;;;;;;;3.55;0.88;;;;;22.00;100488.00;;;;5108098;28;20208;-77
2022/10/24 12:16:57;;;;;;;3.45;0.52;;;;;22.00;100491.00;;;;5097067;28;20296;-76
2022/10/24 12:19:26;;;;;;;2.42;0.95;;;;;22.00;100485.00;;;;5107363;28;20197;-76
2022/10/24 12:21:56;;;;;;;1.52;0.63;;;;;22.00;100480.00;;;;5107065;28;20213;-77
2022/10/24 12:24:30;;;;;;;0.60;0.40;;;;;22.00;100479.00;;;;5107310;28;20721;-76
2022/10/24 12:27:01;;;;;;;4.43;1.08;;;;;22.10;100492.00;;;;5107700;28;20251;-77